NFTF/TBU METAR and TAF weather

Enter ICAO airport designator
Station Type Date Time Source
NFTF METAR 2022/08/12 14:00 UTC NOAA

NFTF 121400Z 21008KT 9999 FEW018 21/18 Q1015


Station Type Date Time Source
NFTF Decoded METAR 2022/08/12 14:00 UTC NOAA

Fua'Amotu, Tonga (NFTF) 21-14S 175-09W 41M
Aug 12, 2022 - 10:00 AM EDT / 2022.08.12 1400 UTC
Wind: from the SSW (210 degrees) at 9 MPH (8 KT):0
Visibility: greater than 7 mile(s):0
Sky conditions: mostly clear
Temperature: 69 F (21 C)
Dew Point: 64 F (18 C)
Relative Humidity: 82%
Pressure (altimeter): 29.97 in. Hg (1015 hPa)
ob: NFTF 121400Z 21008KT 9999 FEW018 21/18 Q1015
cycle: 14

Station Type Date Time Source
NFTF TAF 2022/08/12 12:06 UTC NOAA

TAF NFTF 121102Z 1212/1312 18010KT 9999 FEW016

Example: see airport list